sensor_id;sensor_type;location;lat;lon;timestamp;temperature;humidity
56123;DHT22;42426;46.104;19.656;2023-08-08T05:33:22;410.00;2355.20
56123;DHT22;42426;46.104;19.656;2023-08-08T05:35:48;409.90;2355.20
56123;DHT22;42426;46.104;19.656;2023-08-08T05:38:15;410.00;2355.20
56123;DHT22;42426;46.104;19.656;2023-08-08T05:40:41;410.20;2355.20
56123;DHT22;42426;46.104;19.656;2023-08-08T05:43:07;410.20;2355.20
56123;DHT22;42426;46.104;19.656;2023-08-08T08:14:45;537.70;1894.40
56123;DHT22;42426;46.104;19.656;2023-08-08T08:17:11;512.90;1868.80
56123;DHT22;42426;46.104;19.656;2023-08-08T08:19:37;537.60;1894.40
56123;DHT22;42426;46.104;19.656;2023-08-08T08:22:03;512.90;1868.80
56123;DHT22;42426;46.104;19.656;2023-08-08T08:24:29;512.90;1843.20
56123;DHT22;42426;46.104;19.656;2023-08-08T08:26:54;537.60;1868.80
56123;DHT22;42426;46.104;19.656;2023-08-08T08:29:20;537.60;1894.40
56123;DHT22;42426;46.104;19.656;2023-08-08T08:31:46;537.60;1894.40
56123;DHT22;42426;46.104;19.656;2023-08-08T08:34:12;537.60;1868.80
56123;DHT22;42426;46.104;19.656;2023-08-08T08:36:37;537.60;1868.80
56123;DHT22;42426;46.104;19.656;2023-08-08T08:39:03;537.70;1868.80
56123;DHT22;42426;46.104;19.656;2023-08-08T08:41:30;537.80;1868.80
56123;DHT22;42426;46.104;19.656;2023-08-08T08:43:57;537.80;1868.80
56123;DHT22;42426;46.104;19.656;2023-08-08T08:46:24;537.90;1868.80
56123;DHT22;42426;46.104;19.656;2023-08-08T08:48:51;537.90;1843.20
56123;DHT22;42426;46.104;19.656;2023-08-08T08:51:18;537.90;1817.60
56123;DHT22;42426;46.104;19.656;2023-08-08T08:53:44;537.90;1817.60
56123;DHT22;42426;46.104;19.656;2023-08-08T08:56:13;537.90;1817.60
56123;DHT22;42426;46.104;19.656;2023-08-08T08:58:40;538.00;1817.60
56123;DHT22;42426;46.104;19.656;2023-08-08T09:01:07;538.00;1792.00
56123;DHT22;42426;46.104;19.656;2023-08-08T09:03:38;538.10;1792.00
56123;DHT22;42426;46.104;19.656;2023-08-08T09:06:05;538.10;1792.00
56123;DHT22;42426;46.104;19.656;2023-08-08T09:08:31;538.20;1792.00
56123;DHT22;42426;46.104;19.656;2023-08-08T09:10:57;538.10;1792.00
56123;DHT22;42426;46.104;19.656;2023-08-08T09:13:23;538.20;1792.00
56123;DHT22;42426;46.104;19.656;2023-08-08T09:15:56;538.20;1740.80
56123;DHT22;42426;46.104;19.656;2023-08-08T09:18:23;538.30;1766.40
56123;DHT22;42426;46.104;19.656;2023-08-08T09:20:50;538.30;1792.00
56123;DHT22;42426;46.104;19.656;2023-08-08T09:23:16;538.40;1766.40
56123;DHT22;42426;46.104;19.656;2023-08-08T09:25:42;538.40;1740.80
56123;DHT22;42426;46.104;19.656;2023-08-08T09:28:08;538.40;1766.40
56123;DHT22;42426;46.104;19.656;2023-08-08T09:30:34;538.40;1740.80
56123;DHT22;42426;46.104;19.656;2023-08-08T09:33:01;538.40;1740.80
56123;DHT22;42426;46.104;19.656;2023-08-08T09:35:28;538.40;1715.20
56123;DHT22;42426;46.104;19.656;2023-08-08T09:37:55;538.40;1740.80
56123;DHT22;42426;46.104;19.656;2023-08-08T09:40:23;538.40;1715.20
56123;DHT22;42426;46.104;19.656;2023-08-08T09:42:51;538.40;1740.80
56123;DHT22;42426;46.104;19.656;2023-08-08T09:45:17;538.40;1715.20
56123;DHT22;42426;46.104;19.656;2023-08-08T09:47:45;538.50;1689.60
56123;DHT22;42426;46.104;19.656;2023-08-08T09:50:11;538.50;1664.00
56123;DHT22;42426;46.104;19.656;2023-08-08T09:52:37;538.50;1689.60
56123;DHT22;42426;46.104;19.656;2023-08-08T09:55:06;538.50;1689.60
56123;DHT22;42426;46.104;19.656;2023-08-08T09:57:33;538.40;1689.60
56123;DHT22;42426;46.104;19.656;2023-08-08T10:00:07;538.50;1638.40
56123;DHT22;42426;46.104;19.656;2023-08-08T10:02:46;538.50;1664.00
56123;DHT22;42426;46.104;19.656;2023-08-08T10:05:17;563.20;1664.00
56123;DHT22;42426;46.104;19.656;2023-08-08T10:07:46;563.20;1689.60
56123;DHT22;42426;46.104;19.656;2023-08-08T10:10:12;563.30;1664.00
56123;DHT22;42426;46.104;19.656;2023-08-08T10:12:40;563.30;1689.60
56123;DHT22;42426;46.104;19.656;2023-08-08T10:15:10;563.50;1664.00
56123;DHT22;42426;46.104;19.656;2023-08-08T10:17:37;563.50;1689.60
56123;DHT22;42426;46.104;19.656;2023-08-08T10:20:05;563.50;1664.00
56123;DHT22;42426;46.104;19.656;2023-08-08T10:22:41;563.50;1612.80
56123;DHT22;42426;46.104;19.656;2023-08-08T10:27:36;563.60;1638.40
56123;DHT22;42426;46.104;19.656;2023-08-08T15:56:49;691.70;1100.80
56123;DHT22;42426;46.104;19.656;2023-08-08T16:01:41;692.10;1126.40
56123;DHT22;42426;46.104;19.656;2023-08-08T16:06:33;717.00;1100.80
56123;DHT22;42426;46.104;19.656;2023-08-08T16:08:59;717.30;1049.60
56123;DHT22;42426;46.104;19.656;2023-08-08T16:13:51;742.50;1075.20
56123;DHT22;42426;46.104;19.656;2023-08-08T16:16:17;717.70;1024.00
56123;DHT22;42426;46.104;19.656;2023-08-08T16:18:43;742.40;1075.20
56123;DHT22;42426;46.104;19.656;2023-08-08T16:21:09;717.70;1049.60
56123;DHT22;42426;46.104;19.656;2023-08-08T16:23:34;742.50;1075.20
56123;DHT22;42426;46.104;19.656;2023-08-08T16:26:00;742.80;1049.60
56123;DHT22;42426;46.104;19.656;2023-08-08T16:28:27;743.20;1024.00
56123;DHT22;42426;46.104;19.656;2023-08-08T16:30:55;768.30;972.80
56123;DHT22;42426;46.104;19.656;2023-08-08T16:38:14;768.40;972.80
56123;DHT22;42426;46.104;19.656;2023-08-08T16:40:42;768.20;972.80
56123;DHT22;42426;46.104;19.656;2023-08-08T16:43:08;768.30;972.80
56123;DHT22;42426;46.104;19.656;2023-08-08T16:45:36;768.50;1024.00
56123;DHT22;42426;46.104;19.656;2023-08-08T16:48:02;768.40;1049.60
56123;DHT22;42426;46.104;19.656;2023-08-08T16:50:29;768.50;998.40
56123;DHT22;42426;46.104;19.656;2023-08-08T16:52:55;768.30;1049.60
56123;DHT22;42426;46.104;19.656;2023-08-08T16:55:21;768.40;972.80
56123;DHT22;42426;46.104;19.656;2023-08-08T16:57:47;768.40;1024.00
56123;DHT22;42426;46.104;19.656;2023-08-08T17:00:13;768.50;972.80
56123;DHT22;42426;46.104;19.656;2023-08-08T17:02:40;768.40;947.20
56123;DHT22;42426;46.104;19.656;2023-08-08T17:05:06;768.20;1024.00
56123;DHT22;42426;46.104;19.656;2023-08-08T17:07:32;743.10;1075.20
56123;DHT22;42426;46.104;19.656;2023-08-08T17:12:25;717.20;1075.20
56123;DHT22;42426;46.104;19.656;2023-08-08T17:14:51;691.90;1126.40
56123;DHT22;42426;46.104;19.656;2023-08-08T17:17:17;691.40;1177.60
56123;DHT22;42426;46.104;19.656;2023-08-08T17:19:43;666.10;1203.20
56123;DHT22;42426;46.104;19.656;2023-08-08T17:22:09;665.80;1280.00
56123;DHT22;42426;46.104;19.656;2023-08-08T17:27:01;640.50;1331.20
56123;DHT22;42426;46.104;19.656;2023-08-08T19:21:47;538.30;1766.40
56123;DHT22;42426;46.104;19.656;2023-08-08T19:24:13;537.90;1766.40
56123;DHT22;42426;46.104;19.656;2023-08-08T19:26:39;537.90;1766.40
56123;DHT22;42426;46.104;19.656;2023-08-08T19:29:06;537.90;1766.40
56123;DHT22;42426;46.104;19.656;2023-08-08T19:31:32;537.90;1792.00
56123;DHT22;42426;46.104;19.656;2023-08-08T19:34:00;537.90;1792.00
56123;DHT22;42426;46.104;19.656;2023-08-08T19:36:27;537.80;1792.00
56123;DHT22;42426;46.104;19.656;2023-08-08T19:38:53;537.80;1792.00
56123;DHT22;42426;46.104;19.656;2023-08-08T19:41:20;537.80;1792.00
56123;DHT22;42426;46.104;19.656;2023-08-08T19:43:46;537.80;1817.60
56123;DHT22;42426;46.104;19.656;2023-08-08T19:46:12;537.70;1817.60
56123;DHT22;42426;46.104;19.656;2023-08-08T19:48:40;537.70;1843.20
56123;DHT22;42426;46.104;19.656;2023-08-08T19:51:07;537.60;1843.20
56123;DHT22;42426;46.104;19.656;2023-08-08T19:53:32;537.60;1843.20
56123;DHT22;42426;46.104;19.656;2023-08-08T19:55:58;512.90;1843.20
56123;DHT22;42426;46.104;19.656;2023-08-08T19:58:26;512.90;1843.20
56123;DHT22;42426;46.104;19.656;2023-08-08T20:00:53;512.80;1843.20
56123;DHT22;42426;46.104;19.656;2023-08-08T20:03:18;512.80;1868.80
56123;DHT22;42426;46.104;19.656;2023-08-08T20:05:44;512.80;1868.80
56123;DHT22;42426;46.104;19.656;2023-08-08T20:08:10;512.70;1868.80
56123;DHT22;42426;46.104;19.656;2023-08-08T20:10:36;512.70;1868.80
56123;DHT22;42426;46.104;19.656;2023-08-08T20:13:02;512.60;1894.40
56123;DHT22;42426;46.104;19.656;2023-08-08T20:15:29;512.60;1894.40
56123;DHT22;42426;46.104;19.656;2023-08-08T20:17:55;512.60;1920.00
56123;DHT22;42426;46.104;19.656;2023-08-08T20:20:21;512.60;1920.00
56123;DHT22;42426;46.104;19.656;2023-08-08T20:22:48;512.50;1945.60
56123;DHT22;42426;46.104;19.656;2023-08-08T20:25:14;512.50;1945.60
56123;DHT22;42426;46.104;19.656;2023-08-08T20:27:41;512.50;1945.60
56123;DHT22;42426;46.104;19.656;2023-08-08T20:30:07;512.50;1945.60
56123;DHT22;42426;46.104;19.656;2023-08-08T20:32:33;512.40;1945.60
56123;DHT22;42426;46.104;19.656;2023-08-08T20:34:59;512.40;1945.60
56123;DHT22;42426;46.104;19.656;2023-08-08T20:37:25;512.30;1945.60
56123;DHT22;42426;46.104;19.656;2023-08-08T20:39:51;512.30;1971.20
56123;DHT22;42426;46.104;19.656;2023-08-08T20:42:16;512.30;1971.20
56123;DHT22;42426;46.104;19.656;2023-08-08T20:44:42;512.20;1971.20
56123;DHT22;42426;46.104;19.656;2023-08-08T20:47:08;512.10;1996.80
56123;DHT22;42426;46.104;19.656;2023-08-08T20:49:34;512.10;1996.80
56123;DHT22;42426;46.104;19.656;2023-08-08T20:52:00;512.10;1996.80
56123;DHT22;42426;46.104;19.656;2023-08-08T20:54:26;512.10;1996.80
56123;DHT22;42426;46.104;19.656;2023-08-08T20:56:56;512.00;2022.40
56123;DHT22;42426;46.104;19.656;2023-08-08T20:59:23;512.00;2022.40
56123;DHT22;42426;46.104;19.656;2023-08-08T21:01:49;512.00;2048.00
56123;DHT22;42426;46.104;19.656;2023-08-08T21:04:14;487.30;2048.00
56123;DHT22;42426;46.104;19.656;2023-08-08T21:06:40;487.30;2048.00
56123;DHT22;42426;46.104;19.656;2023-08-08T21:09:06;487.30;2048.00
56123;DHT22;42426;46.104;19.656;2023-08-08T21:11:32;487.20;2073.60
56123;DHT22;42426;46.104;19.656;2023-08-08T21:13:57;487.20;2073.60
56123;DHT22;42426;46.104;19.656;2023-08-08T21:16:23;487.20;2073.60
56123;DHT22;42426;46.104;19.656;2023-08-08T21:18:49;487.20;2073.60
56123;DHT22;42426;46.104;19.656;2023-08-08T21:21:14;487.10;2099.20
56123;DHT22;42426;46.104;19.656;2023-08-08T21:23:41;487.10;2099.20
56123;DHT22;42426;46.104;19.656;2023-08-08T21:26:08;487.00;2099.20
56123;DHT22;42426;46.104;19.656;2023-08-08T21:28:34;486.90;2124.80
56123;DHT22;42426;46.104;19.656;2023-08-08T21:30:59;486.90;2124.80
56123;DHT22;42426;46.104;19.656;2023-08-08T21:33:25;486.90;2124.80
56123;DHT22;42426;46.104;19.656;2023-08-08T21:35:51;486.80;2150.40
56123;DHT22;42426;46.104;19.656;2023-08-08T21:38:17;486.80;2150.40
56123;DHT22;42426;46.104;19.656;2023-08-08T21:40:42;486.90;2176.00
56123;DHT22;42426;46.104;19.656;2023-08-08T21:43:08;486.70;2176.00
56123;DHT22;42426;46.104;19.656;2023-08-08T21:45:34;486.70;2176.00
56123;DHT22;42426;46.104;19.656;2023-08-08T21:48:00;486.80;2176.00
56123;DHT22;42426;46.104;19.656;2023-08-08T21:50:26;486.70;2201.60
56123;DHT22;42426;46.104;19.656;2023-08-08T21:52:54;486.60;2201.60
56123;DHT22;42426;46.104;19.656;2023-08-08T21:55:20;486.70;2201.60
56123;DHT22;42426;46.104;19.656;2023-08-08T21:57:45;486.60;2201.60
56123;DHT22;42426;46.104;19.656;2023-08-08T22:00:12;486.60;2227.20
56123;DHT22;42426;46.104;19.656;2023-08-08T22:02:40;486.60;2227.20
56123;DHT22;42426;46.104;19.656;2023-08-08T22:05:07;486.70;2227.20
56123;DHT22;42426;46.104;19.656;2023-08-08T22:07:33;486.60;2252.80
56123;DHT22;42426;46.104;19.656;2023-08-08T22:39:18;486.40;2304.00
56123;DHT22;42426;46.104;19.656;2023-08-08T22:41:43;461.60;2304.00
56123;DHT22;42426;46.104;19.656;2023-08-08T22:44:09;461.60;2329.60
56123;DHT22;42426;46.104;19.656;2023-08-08T22:46:35;461.50;2329.60
56123;DHT22;42426;46.104;19.656;2023-08-08T22:49:00;461.50;2329.60
56123;DHT22;42426;46.104;19.656;2023-08-08T22:51:26;461.40;2355.20
56123;DHT22;42426;46.104;19.656;2023-08-08T22:53:53;461.50;2355.20
56123;DHT22;42426;46.104;19.656;2023-08-08T22:56:19;461.40;2355.20
56123;DHT22;42426;46.104;19.656;2023-08-08T22:58:46;461.30;2355.20
56123;DHT22;42426;46.104;19.656;2023-08-08T23:01:13;461.30;2380.80
56123;DHT22;42426;46.104;19.656;2023-08-08T23:03:39;461.30;2380.80
56123;DHT22;42426;46.104;19.656;2023-08-08T23:06:05;461.30;2380.80
56123;DHT22;42426;46.104;19.656;2023-08-08T23:08:31;461.30;2380.80
56123;DHT22;42426;46.104;19.656;2023-08-08T23:10:57;461.30;2380.80
56123;DHT22;42426;46.104;19.656;2023-08-08T23:13:25;461.30;2380.80
56123;DHT22;42426;46.104;19.656;2023-08-08T23:15:51;461.20;2380.80
56123;DHT22;42426;46.104;19.656;2023-08-08T23:18:17;461.20;2380.80
56123;DHT22;42426;46.104;19.656;2023-08-08T23:20:43;461.20;2380.80
56123;DHT22;42426;46.104;19.656;2023-08-08T23:23:09;461.20;2380.80
56123;DHT22;42426;46.104;19.656;2023-08-08T23:25:35;461.20;2380.80
56123;DHT22;42426;46.104;19.656;2023-08-08T23:28:01;461.20;2380.80
56123;DHT22;42426;46.104;19.656;2023-08-08T23:30:27;461.10;2380.80
56123;DHT22;42426;46.104;19.656;2023-08-08T23:32:53;461.10;2380.80
56123;DHT22;42426;46.104;19.656;2023-08-08T23:35:20;461.00;2380.80
56123;DHT22;42426;46.104;19.656;2023-08-08T23:37:46;461.00;2380.80
56123;DHT22;42426;46.104;19.656;2023-08-08T23:40:11;461.00;2380.80
56123;DHT22;42426;46.104;19.656;2023-08-08T23:42:38;460.90;2380.80
56123;DHT22;42426;46.104;19.656;2023-08-08T23:45:04;460.90;2380.80
56123;DHT22;42426;46.104;19.656;2023-08-08T23:47:33;460.90;2380.80
56123;DHT22;42426;46.104;19.656;2023-08-08T23:49:59;460.90;2380.80
56123;DHT22;42426;46.104;19.656;2023-08-08T23:52:25;460.90;2380.80
56123;DHT22;42426;46.104;19.656;2023-08-08T23:54:51;460.90;2380.80
56123;DHT22;42426;46.104;19.656;2023-08-08T23:57:17;460.90;2380.80
56123;DHT22;42426;46.104;19.656;2023-08-08T23:59:42;460.90;2380.80
